Time;durP1;ratioP1;P1;durP2;ratioP2;P2;SDS_P1;SDS_P2;PMS_P1;PMS_P2;Temp;Humidity;BMP_temperature;BMP_pressure;BME280_temperature;BME280_humidity;BME280_pressure;Samples;Min_cycle;Max_cycle;Signal;HPM_P1;HPM_P2
2022/08/23 00:01:19;;;;;;;6.63;3.40;;;18.60;99.50;;;;;;5019515;28;20042;-92
2022/08/23 00:03:45;;;;;;;7.88;3.10;;;18.60;99.70;;;;;;5009735;28;20029;-92
2022/08/23 00:06:11;;;;;;;7.00;2.70;;;18.50;99.90;;;;;;5032827;28;20053;-93
2022/08/23 00:08:37;;;;;;;9.38;3.00;;;18.50;99.90;;;;;;5032802;28;20101;-92
2022/08/23 00:11:04;;;;;;;6.88;3.38;;;18.40;99.90;;;;;;5001645;28;20046;-92
2022/08/23 00:13:31;;;;;;;6.93;3.33;;;18.40;99.90;;;;;;5008922;28;20125;-92
2022/08/23 00:15:57;;;;;;;7.82;3.40;;;18.30;99.90;;;;;;5014790;28;20029;-91
2022/08/23 00:18:23;;;;;;;8.27;3.40;;;18.30;99.90;;;;;;5010717;28;20025;-92
2022/08/23 00:20:49;;;;;;;6.78;3.00;;;18.30;99.90;;;;;;5014615;28;20045;-92
2022/08/23 00:23:15;;;;;;;6.55;3.28;;;18.30;99.90;;;;;;5017151;28;20168;-92
2022/08/23 00:25:40;;;;;;;8.57;3.50;;;18.20;99.90;;;;;;5020486;28;20029;-92
2022/08/23 00:28:07;;;;;;;8.15;3.40;;;18.20;99.90;;;;;;5017467;28;20404;-91
2022/08/23 00:30:33;;;;;;;8.68;3.38;;;18.10;99.90;;;;;;5001124;28;20124;-92
2022/08/23 00:32:59;;;;;;;6.85;3.40;;;18.00;99.90;;;;;;5007364;28;20053;-92
2022/08/23 00:35:25;;;;;;;8.57;3.55;;;17.90;99.90;;;;;;5016703;28;20030;-92
2022/08/23 00:37:50;;;;;;;10.80;3.70;;;17.90;99.90;;;;;;5012510;28;20093;-92
2022/08/23 00:40:17;;;;;;;10.70;4.28;;;17.90;99.90;;;;;;5019196;28;20057;-90
2022/08/23 00:48:54;;;;;;;8.93;4.38;;;17.80;99.90;;;;;;5032146;28;20040;-92
2022/08/23 00:51:40;;;;;;;9.27;4.15;;;17.70;99.90;;;;;;5020247;28;20029;-92
2022/08/23 00:54:08;;;;;;;9.40;4.18;;;17.70;99.90;;;;;;5009679;28;20025;-92
2022/08/23 00:56:35;;;;;;;10.48;3.67;;;17.60;99.90;;;;;;5019243;28;20053;-91
2022/08/23 00:59:01;;;;;;;8.77;4.28;;;17.60;99.90;;;;;;5011391;28;20033;-92
2022/08/23 01:01:27;;;;;;;9.38;5.47;;;17.60;99.90;;;;;;5007580;28;20029;-91
2022/08/23 01:03:55;;;;;;;9.40;5.00;;;17.50;99.90;;;;;;5017890;28;20370;-90
2022/08/23 01:06:28;;;;;;;8.05;4.85;;;17.50;99.90;;;;;;5026659;28;20099;-91
2022/08/23 01:09:16;;;;;;;11.30;5.55;;;17.40;99.90;;;;;;5017047;28;20460;-91
2022/08/23 01:11:56;;;;;;;11.48;5.63;;;17.40;99.90;;;;;;5003460;28;20084;-91
2022/08/23 01:14:54;;;;;;;10.18;4.93;;;17.40;99.90;;;;;;5027544;28;20556;-90
2022/08/23 01:17:25;;;;;;;10.60;4.85;;;17.30;99.90;;;;;;4992613;28;20401;-91
2022/08/23 01:19:58;;;;;;;14.37;5.80;;;17.30;99.90;;;;;;5028380;28;20052;-91
2022/08/23 01:22:30;;;;;;;9.98;5.28;;;17.30;99.90;;;;;;5028164;28;20026;-90
2022/08/23 01:24:56;;;;;;;15.23;5.35;;;17.20;99.90;;;;;;5033535;28;20033;-90
2022/08/23 01:27:23;;;;;;;10.70;5.57;;;17.20;99.90;;;;;;5015173;28;20109;-90
2022/08/23 01:29:48;;;;;;;10.98;5.45;;;17.20;99.90;;;;;;5035787;28;20067;-91
2022/08/23 01:32:14;;;;;;;9.13;6.65;;;17.10;99.90;;;;;;5005475;28;20109;-91
2022/08/23 01:34:39;;;;;;;16.75;7.30;;;17.10;99.90;;;;;;5031050;28;20030;-90
2022/08/23 01:37:07;;;;;;;15.35;6.93;;;17.10;99.90;;;;;;5035093;28;20100;-91
2022/08/23 01:39:34;;;;;;;11.65;6.63;;;17.10;99.90;;;;;;5008981;28;20481;-91
2022/08/23 01:42:00;;;;;;;9.63;5.82;;;17.10;99.90;;;;;;5025093;28;20104;-91
2022/08/23 01:44:26;;;;;;;13.57;7.00;;;17.00;99.90;;;;;;5016802;28;20060;-90
2022/08/23 01:46:52;;;;;;;14.10;6.93;;;17.00;99.90;;;;;;5019327;28;20080;-91
2022/08/23 01:49:18;;;;;;;11.25;7.20;;;17.00;99.90;;;;;;5016189;28;20021;-91
2022/08/23 01:51:43;;;;;;;9.40;6.70;;;17.00;99.90;;;;;;5030929;28;20063;-91
2022/08/23 01:54:09;;;;;;;11.05;6.72;;;17.00;99.90;;;;;;5017271;28;20473;-90
2022/08/23 01:56:36;;;;;;;11.20;7.03;;;17.00;99.90;;;;;;5036358;28;20033;-91
2022/08/23 01:59:02;;;;;;;11.70;6.55;;;16.90;99.90;;;;;;5016534;28;20091;-91
2022/08/23 02:01:28;;;;;;;10.63;7.13;;;16.90;99.90;;;;;;5016029;28;20608;-90
2022/08/23 02:03:54;;;;;;;11.27;6.55;;;16.80;99.90;;;;;;5012885;28;20071;-91
2022/08/23 02:06:20;;;;;;;10.07;6.78;;;16.80;99.90;;;;;;5036050;28;20401;-90
2022/08/23 02:09:01;;;;;;;13.05;7.43;;;16.80;99.90;;;;;;5016187;28;20025;-91
2022/08/23 02:11:31;;;;;;;12.07;6.57;;;16.80;99.90;;;;;;5013594;28;20026;-91
2022/08/23 02:13:59;;;;;;;11.90;6.90;;;16.80;99.90;;;;;;5011645;28;20030;-92
2022/08/23 02:16:34;;;;;;;14.73;7.03;;;16.80;99.90;;;;;;5014186;28;20390;-91
2022/08/23 02:19:03;;;;;;;10.55;6.88;;;16.80;99.90;;;;;;5011736;28;20101;-91
2022/08/23 02:21:32;;;;;;;11.98;6.45;;;16.80;99.90;;;;;;5026275;28;20041;-91
2022/08/23 02:23:59;;;;;;;10.43;7.15;;;16.80;99.90;;;;;;5012275;28;20484;-91
2022/08/23 02:26:24;;;;;;;14.63;6.90;;;16.80;99.90;;;;;;5007399;28;20040;-90
2022/08/23 02:28:51;;;;;;;11.32;7.55;;;16.80;99.90;;;;;;5013030;28;20421;-91
2022/08/23 02:31:17;;;;;;;10.05;7.72;;;16.90;99.90;;;;;;5009932;28;20052;-91
2022/08/23 02:33:43;;;;;;;12.43;7.78;;;16.90;99.90;;;;;;5007698;28;20040;-91
2022/08/23 02:36:08;;;;;;;12.32;7.90;;;16.90;99.90;;;;;;5017320;28;20032;-92
2022/08/23 02:38:34;;;;;;;14.15;8.80;;;17.00;99.90;;;;;;5013419;28;20037;-91
2022/08/23 02:41:00;;;;;;;13.73;7.63;;;16.90;99.90;;;;;;5015486;28;20033;-91
2022/08/23 02:43:26;;;;;;;15.07;8.05;;;16.90;99.90;;;;;;5016208;28;20026;-91
2022/08/23 02:45:52;;;;;;;11.30;7.13;;;17.00;99.90;;;;;;5032609;28;20075;-91
2022/08/23 02:48:17;;;;;;;12.18;7.47;;;16.90;99.90;;;;;;4999224;28;20022;-91
2022/08/23 02:50:43;;;;;;;11.35;8.00;;;16.90;99.90;;;;;;5010310;28;20097;-91
2022/08/23 02:53:08;;;;;;;13.95;8.35;;;16.90;99.90;;;;;;4999194;28;20042;-93
2022/08/23 02:55:34;;;;;;;12.45;8.65;;;16.80;99.90;;;;;;5006779;28;20492;-91
2022/08/23 02:57:59;;;;;;;11.77;8.50;;;16.80;99.90;;;;;;5016544;28;20049;-90
2022/08/23 03:00:25;;;;;;;16.00;8.82;;;16.80;99.90;;;;;;5018529;28;20105;-90
2022/08/23 03:02:51;;;;;;;14.45;9.27;;;16.70;99.90;;;;;;5021765;28;20416;-92
2022/08/23 03:05:17;;;;;;;14.23;9.18;;;16.70;99.90;;;;;;5022486;28;20034;-92
2022/08/23 03:07:43;;;;;;;14.90;9.15;;;16.70;99.90;;;;;;5021633;28;20116;-92
2022/08/23 03:10:09;;;;;;;13.40;8.80;;;16.60;99.90;;;;;;5020908;28;20092;-92
2022/08/23 03:12:35;;;;;;;12.95;7.82;;;16.60;99.90;;;;;;5020766;28;20443;-92
2022/08/23 03:15:01;;;;;;;12.75;9.30;;;16.60;99.90;;;;;;5005787;28;20037;-92
2022/08/23 03:17:26;;;;;;;12.82;8.82;;;16.50;99.90;;;;;;5017837;28;20113;-91
2022/08/23 03:19:52;;;;;;;13.52;8.48;;;16.50;99.90;;;;;;5020510;28;20048;-92
2022/08/23 03:22:18;;;;;;;17.73;8.60;;;16.40;99.90;;;;;;5018781;28;20022;-92
2022/08/23 03:24:44;;;;;;;12.10;8.77;;;16.40;99.90;;;;;;5010644;28;20025;-92
2022/08/23 03:27:10;;;;;;;13.10;9.15;;;16.40;99.90;;;;;;5021449;28;20039;-92
2022/08/23 03:29:36;;;;;;;20.85;10.38;;;16.30;99.90;;;;;;5025204;28;20049;-92
2022/08/23 03:32:03;;;;;;;15.40;11.15;;;16.30;99.90;;;;;;5039382;28;20049;-92
2022/08/23 03:34:29;;;;;;;13.18;9.50;;;16.30;99.90;;;;;;5019732;28;20029;-92
2022/08/23 03:36:55;;;;;;;15.77;10.60;;;16.30;99.90;;;;;;5019265;28;20040;-91
2022/08/23 03:39:20;;;;;;;13.90;10.13;;;16.20;99.90;;;;;;5003926;28;20025;-92
2022/08/23 03:41:46;;;;;;;15.98;10.88;;;16.20;99.90;;;;;;5014051;28;20590;-91
2022/08/23 03:44:11;;;;;;;16.70;11.38;;;16.20;99.90;;;;;;5036577;28;20036;-92
2022/08/23 03:46:37;;;;;;;17.20;11.63;;;16.20;99.90;;;;;;5035803;28;20052;-91
2022/08/23 03:49:03;;;;;;;17.30;11.38;;;16.20;99.90;;;;;;5020376;28;20025;-92
2022/08/23 03:51:30;;;;;;;15.50;11.45;;;16.20;99.90;;;;;;5021886;28;20032;-90
2022/08/23 03:53:56;;;;;;;13.85;10.25;;;16.20;99.90;;;;;;5018208;28;20033;-91
2022/08/23 03:56:23;;;;;;;17.52;10.90;;;16.20;99.90;;;;;;5020695;28;20492;-89
2022/08/23 03:58:49;;;;;;;17.33;11.57;;;16.20;99.90;;;;;;5020540;28;20499;-91
2022/08/23 04:01:15;;;;;;;15.60;12.05;;;16.30;99.90;;;;;;5019576;28;20037;-90
2022/08/23 04:03:42;;;;;;;15.57;11.43;;;16.20;99.90;;;;;;5019243;28;20040;-90
2022/08/23 04:06:08;;;;;;;18.48;12.60;;;16.30;99.90;;;;;;5019697;28;20045;-90
2022/08/23 04:08:34;;;;;;;16.13;11.68;;;16.30;99.90;;;;;;5014371;28;22098;-90
2022/08/23 04:11:00;;;;;;;17.65;11.95;;;16.40;99.90;;;;;;5006914;28;20090;-90
2022/08/23 04:13:27;;;;;;;15.82;11.35;;;16.40;99.90;;;;;;5019717;28;20071;-89
2022/08/23 04:15:53;;;;;;;16.35;10.85;;;16.40;99.90;;;;;;5020096;28;20026;-90
2022/08/23 04:18:19;;;;;;;15.90;11.65;;;16.50;99.90;;;;;;5020335;28;20025;-89
2022/08/23 04:20:46;;;;;;;15.10;12.23;;;16.50;99.90;;;;;;5035706;28;20053;-90
2022/08/23 04:23:11;;;;;;;15.15;11.52;;;16.50;99.90;;;;;;5029622;28;20026;-91
2022/08/23 04:25:37;;;;;;;16.45;11.00;;;16.60;99.90;;;;;;5029392;28;20507;-90
2022/08/23 04:28:04;;;;;;;12.65;9.75;;;16.60;99.90;;;;;;5032469;28;20017;-90
2022/08/23 04:30:31;;;;;;;15.13;10.07;;;16.60;99.90;;;;;;5016792;28;20184;-89
2022/08/23 04:32:56;;;;;;;13.18;10.35;;;16.60;99.90;;;;;;5018376;28;20389;-91
2022/08/23 04:35:24;;;;;;;13.82;10.13;;;16.60;99.90;;;;;;5021048;28;20022;-91
2022/08/23 04:37:50;;;;;;;16.90;9.95;;;16.60;99.90;;;;;;5023245;28;20027;-90
2022/08/23 04:43:01;;;;;;;15.38;10.57;;;16.60;99.90;;;;;;5019701;28;20093;-89
2022/08/23 04:45:26;;;;;;;15.55;10.70;;;16.70;99.90;;;;;;5004122;28;20045;-89
2022/08/23 04:47:53;;;;;;;16.83;11.25;;;16.70;99.90;;;;;;5010761;28;20397;-89
2022/08/23 04:50:18;;;;;;;16.52;12.02;;;16.70;99.90;;;;;;5020555;28;20106;-91
2022/08/23 04:52:44;;;;;;;16.52;12.27;;;16.70;99.90;;;;;;5018798;28;20026;-90
2022/08/23 04:55:11;;;;;;;13.45;11.40;;;16.80;99.90;;;;;;5016245;28;20033;-90
2022/08/23 04:57:37;;;;;;;18.30;12.27;;;16.80;99.90;;;;;;5014896;28;20075;-90
2022/08/23 05:00:04;;;;;;;16.50;11.52;;;16.80;99.90;;;;;;5016268;28;20056;-90
2022/08/23 05:02:30;;;;;;;16.40;11.00;;;16.80;99.90;;;;;;5016108;28;20120;-91
2022/08/23 05:04:55;;;;;;;17.05;12.68;;;16.80;99.90;;;;;;5014891;28;20489;-89
2022/08/23 05:07:21;;;;;;;15.13;12.10;;;16.90;99.90;;;;;;5013654;28;20107;-91
2022/08/23 05:09:46;;;;;;;13.10;11.57;;;16.90;99.90;;;;;;5017027;28;20033;-91
2022/08/23 05:12:12;;;;;;;16.27;11.85;;;16.90;99.90;;;;;;5016176;28;20029;-90
2022/08/23 05:14:37;;;;;;;14.95;10.35;;;17.00;99.90;;;;;;5013670;28;20032;-90
2022/08/23 05:17:04;;;;;;;18.55;11.57;;;17.10;99.90;;;;;;5019536;28;20032;-91
2022/08/23 05:19:29;;;;;;;17.38;11.95;;;17.10;99.90;;;;;;5013309;28;20068;-91
2022/08/23 05:21:55;;;;;;;15.05;11.32;;;17.10;99.90;;;;;;5000436;28;20026;-90
2022/08/23 05:24:20;;;;;;;13.05;11.68;;;17.20;99.90;;;;;;5001052;28;20026;-91
2022/08/23 05:26:46;;;;;;;14.27;10.48;;;17.20;99.90;;;;;;5008506;28;20199;-91
2022/08/23 05:29:11;;;;;;;14.02;10.82;;;17.30;99.90;;;;;;5017285;28;20030;-90
2022/08/23 05:31:37;;;;;;;15.38;11.38;;;17.30;99.90;;;;;;5017631;28;20112;-89
2022/08/23 05:34:03;;;;;;;15.27;11.60;;;17.30;99.90;;;;;;5019586;28;20021;-91
2022/08/23 05:36:29;;;;;;;19.63;12.88;;;17.40;99.90;;;;;;5019935;28;20029;-90
2022/08/23 05:38:55;;;;;;;19.42;14.07;;;17.40;99.90;;;;;;5008370;28;20022;-92
2022/08/23 05:41:20;;;;;;;18.10;12.80;;;17.40;99.90;;;;;;5004219;28;20116;-91
2022/08/23 05:43:47;;;;;;;17.75;11.00;;;17.40;99.90;;;;;;5016685;28;20032;-91
2022/08/23 05:46:15;;;;;;;16.98;12.00;;;17.40;99.90;;;;;;5014930;28;20060;-91
2022/08/23 05:48:45;;;;;;;14.88;11.45;;;17.40;99.90;;;;;;5014399;28;20037;-90
2022/08/23 05:51:23;;;;;;;13.80;11.63;;;17.40;99.90;;;;;;5014723;28;20026;-90
2022/08/23 05:53:51;;;;;;;14.57;11.40;;;17.40;99.90;;;;;;5016873;28;20052;-91
2022/08/23 05:56:27;;;;;;;14.57;10.93;;;17.40;99.90;;;;;;5016886;28;20025;-89
2022/08/23 05:58:57;;;;;;;13.68;11.85;;;17.40;99.90;;;;;;5013817;28;20037;-90
2022/08/23 06:01:23;;;;;;;15.75;11.68;;;17.40;99.90;;;;;;5031876;28;20554;-89
2022/08/23 06:03:49;;;;;;;19.50;12.63;;;17.50;99.90;;;;;;5035795;28;20040;-90
2022/08/23 06:06:16;;;;;;;17.38;12.23;;;17.70;99.90;;;;;;5029457;28;20049;-90
2022/08/23 06:08:45;;;;;;;19.52;12.43;;;17.80;99.90;;;;;;5015059;28;20020;-91
2022/08/23 06:11:20;;;;;;;16.70;11.98;;;17.90;99.90;;;;;;5006488;28;20502;-90
2022/08/23 06:13:52;;;;;;;14.65;12.35;;;18.00;99.90;;;;;;4999511;28;20077;-90
2022/08/23 06:16:20;;;;;;;16.80;14.07;;;18.20;99.90;;;;;;5019009;28;20072;-90
2022/08/23 06:18:46;;;;;;;15.55;13.13;;;18.30;99.90;;;;;;5015820;28;20076;-90
2022/08/23 06:21:13;;;;;;;15.30;13.05;;;18.30;99.90;;;;;;5014919;28;20034;-90
2022/08/23 06:23:40;;;;;;;15.68;12.38;;;18.40;99.90;;;;;;5008523;28;20034;-91
2022/08/23 06:26:17;;;;;;;16.08;13.13;;;18.60;99.90;;;;;;5015955;28;20049;-90
2022/08/23 06:28:48;;;;;;;17.13;13.65;;;18.70;99.90;;;;;;5018634;28;20116;-90
2022/08/23 06:31:14;;;;;;;17.50;13.00;;;18.90;99.90;;;;;;5014192;28;20026;-90
2022/08/23 06:33:42;;;;;;;17.80;13.07;;;19.10;99.90;;;;;;5014604;28;20048;-91
2022/08/23 06:36:11;;;;;;;18.77;12.88;;;19.20;99.90;;;;;;5018127;28;20025;-89
2022/08/23 06:38:38;;;;;;;17.40;13.52;;;19.30;99.90;;;;;;5007442;28;20056;-90
2022/08/23 06:41:08;;;;;;;15.45;13.07;;;19.50;99.90;;;;;;5017853;28;20033;-91
2022/08/23 06:43:35;;;;;;;19.80;14.15;;;19.60;99.90;;;;;;5016481;28;20064;-89
2022/08/23 06:46:19;;;;;;;17.35;14.50;;;19.90;99.90;;;;;;5016082;28;20120;-90
2022/08/23 06:48:45;;;;;;;17.30;13.85;;;20.10;99.90;;;;;;5016896;28;20088;-89
2022/08/23 06:51:13;;;;;;;17.17;13.45;;;20.30;99.90;;;;;;5018149;28;20033;-90
2022/08/23 06:53:39;;;;;;;17.10;13.32;;;20.50;99.90;;;;;;5034267;28;20592;-90
2022/08/23 06:56:05;;;;;;;15.32;12.48;;;20.70;99.90;;;;;;5017915;28;20029;-90
2022/08/23 06:58:30;;;;;;;17.95;13.30;;;20.90;99.90;;;;;;5018949;28;20033;-89
2022/08/23 07:01:18;;;;;;;17.10;13.40;;;21.20;99.90;;;;;;5023602;28;20087;-89
2022/08/23 07:03:44;;;;;;;14.00;12.07;;;21.40;99.90;;;;;;5022741;28;20103;-83
2022/08/23 07:06:10;;;;;;;18.17;12.10;;;21.50;99.90;;;;;;5012880;28;20049;-88
2022/08/23 07:08:35;;;;;;;13.77;10.48;;;21.70;99.90;;;;;;5004348;28;20026;-89
2022/08/23 07:11:01;;;;;;;14.10;10.52;;;21.90;99.90;;;;;;5029931;28;20092;-89
2022/08/23 07:13:27;;;;;;;16.27;9.88;;;22.00;99.90;;;;;;5011623;28;20121;-90
2022/08/23 07:15:58;;;;;;;16.90;9.82;;;22.20;99.90;;;;;;5017860;28;20053;-89
2022/08/23 07:18:24;;;;;;;13.20;9.38;;;22.30;99.90;;;;;;5017246;28;20487;-90
2022/08/23 07:20:55;;;;;;;14.55;8.85;;;22.50;99.90;;;;;;5016785;28;20052;-89
2022/08/23 07:23:21;;;;;;;11.82;8.63;;;22.60;99.90;;;;;;5016000;28;20068;-90
2022/08/23 07:25:46;;;;;;;14.07;10.00;;;22.70;99.90;;;;;;4998816;28;20102;-90
2022/08/23 07:28:12;;;;;;;13.30;9.43;;;22.80;99.90;;;;;;5013188;28;20025;-90
2022/08/23 07:30:38;;;;;;;13.45;8.70;;;22.90;99.90;;;;;;5019238;28;20122;-89
2022/08/23 07:33:04;;;;;;;10.07;8.80;;;22.90;99.90;;;;;;4998288;28;20026;-90
2022/08/23 07:35:30;;;;;;;13.27;8.98;;;22.90;99.80;;;;;;5013154;28;20033;-90
2022/08/23 07:37:56;;;;;;;15.57;9.80;;;23.00;99.60;;;;;;5030125;28;20036;-89
2022/08/23 07:40:22;;;;;;;13.02;9.60;;;23.10;99.50;;;;;;5023332;28;20065;-91
2022/08/23 07:42:47;;;;;;;11.18;8.88;;;23.10;99.30;;;;;;5025175;28;20029;-91
2022/08/23 07:45:13;;;;;;;16.25;9.10;;;23.20;98.90;;;;;;5018779;28;20485;-90
2022/08/23 07:47:41;;;;;;;13.52;8.40;;;23.30;98.50;;;;;;5037441;28;20501;-90
2022/08/23 07:50:07;;;;;;;12.57;8.25;;;23.30;98.40;;;;;;5039455;28;20026;-90
2022/08/23 07:52:34;;;;;;;11.10;7.63;;;23.40;98.00;;;;;;5034235;28;20036;-89
2022/08/23 07:55:00;;;;;;;15.02;8.20;;;23.40;97.80;;;;;;5021249;28;20116;-90
2022/08/23 07:57:26;;;;;;;9.95;7.70;;;23.50;97.50;;;;;;5038517;28;20068;-89
2022/08/23 07:59:51;;;;;;;10.60;7.15;;;23.60;97.20;;;;;;5008681;28;20033;-89
2022/08/23 08:02:17;;;;;;;13.90;6.95;;;23.70;96.90;;;;;;5037368;28;20042;-90
2022/08/23 08:04:43;;;;;;;10.68;6.53;;;23.80;96.60;;;;;;5021102;28;20087;-92
2022/08/23 08:07:08;;;;;;;13.30;6.72;;;23.90;96.50;;;;;;5018415;28;20042;-90
2022/08/23 08:09:34;;;;;;;10.90;6.88;;;24.00;96.20;;;;;;5002292;28;20167;-92
2022/08/23 08:11:59;;;;;;;10.07;7.28;;;24.10;95.90;;;;;;5013032;28;20034;-92
2022/08/23 08:14:25;;;;;;;12.25;7.22;;;24.20;95.70;;;;;;5010831;28;20029;-90
2022/08/23 08:16:51;;;;;;;10.35;7.88;;;24.30;95.30;;;;;;5010627;28;20032;-90
2022/08/23 08:19:18;;;;;;;11.18;7.78;;;24.40;94.90;;;;;;5022232;28;20428;-90
2022/08/23 08:21:44;;;;;;;12.80;7.80;;;24.50;94.60;;;;;;5014183;28;20045;-88
2022/08/23 08:24:12;;;;;;;12.40;8.18;;;24.50;94.30;;;;;;5022142;28;20469;-88
2022/08/23 08:26:40;;;;;;;12.18;6.43;;;24.60;94.30;;;;;;5022217;28;20029;-88
2022/08/23 08:29:06;;;;;;;12.02;6.97;;;24.70;93.80;;;;;;5039896;28;20049;-89
2022/08/23 08:31:33;;;;;;;14.77;6.03;;;24.90;93.30;;;;;;5024044;28;20033;-90
2022/08/23 08:33:58;;;;;;;9.07;6.35;;;24.90;92.90;;;;;;5023091;28;20025;-90
2022/08/23 08:36:30;;;;;;;16.10;8.50;;;25.00;92.70;;;;;;5022752;28;20029;-89
2022/08/23 08:38:57;;;;;;;12.63;7.30;;;25.10;92.40;;;;;;5026449;28;20029;-90
2022/08/23 08:42:07;;;;;;;9.73;6.18;;;25.10;92.70;;;;;;5032668;28;20037;-88
2022/08/23 08:44:45;;;;;;;8.45;5.57;;;25.20;91.90;;;;;;4984169;28;20046;-92
2022/08/23 08:47:38;;;;;;;10.88;6.38;;;25.30;91.80;;;;;;5008722;28;20037;-91
2022/08/23 08:50:22;;;;;;;9.50;6.63;;;25.40;91.40;;;;;;5019288;28;20030;-90
2022/08/23 08:52:53;;;;;;;10.50;5.97;;;25.60;90.70;;;;;;5005429;28;20548;-90
2022/08/23 08:55:26;;;;;;;11.40;6.35;;;25.60;90.30;;;;;;4998704;28;20565;-90
2022/08/23 08:57:53;;;;;;;9.07;4.97;;;25.60;89.60;;;;;;5004721;28;20022;-89
2022/08/23 09:00:38;;;;;;;11.40;5.95;;;25.70;89.70;;;;;;5015556;28;20120;-88
2022/08/23 09:03:10;;;;;;;14.07;5.88;;;25.90;90.00;;;;;;5016978;28;20116;-91
2022/08/23 09:05:38;;;;;;;9.93;4.68;;;25.90;89.20;;;;;;5016961;28;20037;-89
2022/08/23 09:08:18;;;;;;;9.02;5.43;;;26.10;88.90;;;;;;5023569;28;20072;-91
2022/08/23 09:11:23;;;;;;;10.13;5.05;;;26.20;88.00;;;;;;5014138;28;20107;-89
2022/08/23 09:13:55;;;;;;;11.75;5.00;;;26.30;87.20;;;;;;4999538;28;20041;-88
2022/08/23 09:16:38;;;;;;;7.78;4.32;;;26.50;87.00;;;;;;5018117;28;20022;-89
2022/08/23 09:19:05;;;;;;;11.63;5.95;;;26.50;86.80;;;;;;5020464;28;20018;-87
2022/08/23 09:21:47;;;;;;;10.52;5.10;;;26.60;85.90;;;;;;5009921;28;20037;-87
2022/08/23 09:24:13;;;;;;;14.57;7.10;;;26.60;85.00;;;;;;5020507;28;20040;-90
2022/08/23 09:26:39;;;;;;;11.32;5.57;;;26.60;84.60;;;;;;5018402;28;20037;-87
2022/08/23 09:29:24;;;;;;;10.07;4.72;;;26.70;83.90;;;;;;5018506;28;20091;-88
2022/08/23 09:31:57;;;;;;;11.80;5.97;;;26.80;84.10;;;;;;5005501;28;20065;-89
2022/08/23 09:34:40;;;;;;;8.52;4.75;;;26.90;83.30;;;;;;5019077;28;20029;-88
2022/08/23 09:37:21;;;;;;;7.72;5.60;;;27.00;83.90;;;;;;5023195;28;20021;-89
2022/08/23 09:39:50;;;;;;;11.45;5.05;;;27.10;82.40;;;;;;5024829;28;20196;-89
2022/08/23 09:42:34;;;;;;;8.40;4.85;;;27.10;82.70;;;;;;5016253;28;20053;-89
2022/08/23 09:45:00;;;;;;;6.88;3.17;;;27.20;82.20;;;;;;5013138;28;20049;-88
2022/08/23 09:47:32;;;;;;;6.95;3.38;;;27.30;81.20;;;;;;5006069;28;20033;-89
2022/08/23 09:50:08;;;;;;;9.15;3.60;;;27.40;80.00;;;;;;5019990;28;20021;-88
2022/08/23 09:52:37;;;;;;;10.02;3.00;;;27.60;79.50;;;;;;5027333;28;20116;-90
2022/08/23 09:55:23;;;;;;;6.38;2.42;;;27.50;79.20;;;;;;5016951;28;20190;-89
2022/08/23 09:57:49;;;;;;;7.55;2.47;;;27.50;79.00;;;;;;5032096;28;20037;-88
2022/08/23 10:00:16;;;;;;;8.00;3.00;;;27.50;79.00;;;;;;5030575;28;20030;-88
2022/08/23 10:02:42;;;;;;;6.15;2.60;;;27.50;78.20;;;;;;5017169;28;20025;-89
2022/08/23 10:05:26;;;;;;;7.88;2.55;;;27.50;78.20;;;;;;5005928;28;20022;-89
2022/08/23 10:07:59;;;;;;;6.45;2.40;;;27.50;77.70;;;;;;5027973;28;20068;-89
2022/08/23 10:10:46;;;;;;;7.70;2.78;;;27.60;77.90;;;;;;5019596;28;20136;-89
2022/08/23 10:13:13;;;;;;;7.05;2.60;;;27.80;77.60;;;;;;5018976;28;20025;-89
2022/08/23 10:15:48;;;;;;;7.90;2.25;;;27.80;76.70;;;;;;5016052;28;20052;-89
2022/08/23 10:18:38;;;;;;;7.75;2.05;;;27.90;76.20;;;;;;5019332;28;20112;-89
2022/08/23 10:21:24;;;;;;;6.32;2.10;;;27.90;75.40;;;;;;5031711;28;20037;-90
2022/08/23 10:24:25;;;;;;;6.55;1.67;;;28.00;75.30;;;;;;5018194;28;20359;-88
2022/08/23 10:30:13;;;;;;;6.68;1.58;;;28.20;74.10;;;;;;5030004;28;20025;-88
2022/08/23 10:33:10;;;;;;;5.95;1.83;;;28.20;74.00;;;;;;5025408;28;20072;-88
2022/08/23 10:36:06;;;;;;;6.95;2.00;;;28.20;73.80;;;;;;4998697;28;20014;-91
2022/08/23 10:38:56;;;;;;;7.93;1.60;;;28.30;73.10;;;;;;5003663;28;20030;-88
2022/08/23 10:41:32;;;;;;;11.63;3.10;;;28.30;72.80;;;;;;5003800;28;20034;-90
2022/08/23 10:44:27;;;;;;;5.00;2.05;;;28.30;72.80;;;;;;5026046;28;20041;-89
2022/08/23 10:47:16;;;;;;;7.45;2.45;;;28.20;72.70;;;;;;5005465;28;20116;-88
2022/08/23 10:49:42;;;;;;;5.78;2.00;;;28.20;72.50;;;;;;5035905;28;20104;-89
2022/08/23 10:52:14;;;;;;;7.30;2.13;;;28.20;72.40;;;;;;5015134;28;20018;-89
2022/08/23 10:54:58;;;;;;;7.32;2.35;;;28.20;71.90;;;;;;4999700;28;20021;-90
2022/08/23 10:57:35;;;;;;;6.40;2.35;;;28.30;72.30;;;;;;5018044;28;20029;-87
2022/08/23 11:00:07;;;;;;;8.25;1.30;;;28.40;72.50;;;;;;5016289;28;20095;-87
2022/08/23 11:02:47;;;;;;;7.13;1.70;;;28.50;71.60;;;;;;5006301;28;20445;-89
2022/08/23 11:05:31;;;;;;;6.75;1.83;;;28.70;71.10;;;;;;5026050;28;20150;-88
2022/08/23 11:08:10;;;;;;;4.13;1.55;;;28.70;70.40;;;;;;4984407;28;20045;-88
2022/08/23 11:10:38;;;;;;;5.25;1.77;;;28.70;71.10;;;;;;4991097;28;20534;-89
2022/08/23 11:13:17;;;;;;;6.07;2.35;;;28.80;70.90;;;;;;4993125;28;20528;-89
2022/08/23 11:15:59;;;;;;;4.50;1.45;;;28.90;70.20;;;;;;4995233;28;20041;-90
2022/08/23 11:18:28;;;;;;;6.18;1.20;;;28.90;70.20;;;;;;4986141;28;20023;-84
2022/08/23 11:20:58;;;;;;;4.18;1.05;;;29.00;69.80;;;;;;4997556;28;20073;-83
2022/08/23 11:23:48;;;;;;;5.57;1.02;;;29.00;69.00;;;;;;4993654;28;20022;-83
2022/08/23 11:26:26;;;;;;;6.22;1.25;;;29.10;68.50;;;;;;4988312;28;20058;-82
2022/08/23 11:29:20;;;;;;;3.65;0.80;;;29.00;67.80;;;;;;4984057;28;20531;-88
2022/08/23 11:31:59;;;;;;;3.88;0.80;;;28.80;68.40;;;;;;4988059;28;20026;-87
2022/08/23 11:34:29;;;;;;;5.50;0.90;;;28.70;68.30;;;;;;4997615;28;20497;-88
2022/08/23 11:37:23;;;;;;;6.75;1.15;;;28.90;68.60;;;;;;4985410;28;20565;-88
2022/08/23 11:39:57;;;;;;;4.88;1.02;;;29.00;68.70;;;;;;4978620;28;20031;-88
2022/08/23 11:42:28;;;;;;;5.07;0.80;;;29.10;68.00;;;;;;4979308;28;20034;-91
2022/08/23 11:44:54;;;;;;;7.17;0.70;;;29.20;67.50;;;;;;4985604;28;20022;-90
2022/08/23 11:47:49;;;;;;;6.80;0.70;;;29.30;67.10;;;;;;4997289;28;20022;-89
2022/08/23 11:50:24;;;;;;;3.53;0.88;;;29.40;66.80;;;;;;4981675;28;20045;-90
2022/08/23 11:53:06;;;;;;;5.25;1.02;;;29.50;66.50;;;;;;4998687;28;20031;-89
2022/08/23 11:56:01;;;;;;;4.00;0.80;;;29.60;66.10;;;;;;4992696;28;20555;-90
2022/08/23 11:58:52;;;;;;;4.00;0.65;;;29.80;65.70;;;;;;4996231;28;20453;-91
2022/08/23 12:01:31;;;;;;;3.53;0.50;;;29.90;65.10;;;;;;4997091;28;20030;-89
2022/08/23 12:04:06;;;;;;;3.97;0.73;;;30.00;64.60;;;;;;5010235;28;20088;-89
2022/08/23 12:06:54;;;;;;;4.22;0.50;;;30.20;63.90;;;;;;4992604;28;20058;-89
2022/08/23 12:09:26;;;;;;;6.10;0.73;;;30.40;62.80;;;;;;5002898;28;20025;-89
2022/08/23 12:11:51;;;;;;;;;;;30.30;62.50;;;;;;5016376;28;20033;-89
2022/08/23 12:14:35;;;;;;;2.90;0.65;;;30.30;63.20;;;;;;5021015;28;19914;-89
2022/08/23 12:17:25;;;;;;;4.72;0.60;;;30.50;63.00;;;;;;4998657;28;20501;-89
2022/08/23 12:19:57;;;;;;;2.65;0.52;;;30.70;61.80;;;;;;5001198;28;20023;-89
2022/08/23 12:22:26;;;;;;;4.05;0.57;;;30.90;61.30;;;;;;5015598;28;20029;-89
2022/08/23 12:24:58;;;;;;;4.78;0.60;;;30.80;61.00;;;;;;5015059;28;20021;-90
2022/08/23 12:27:35;;;;;;;3.67;0.80;;;30.60;60.50;;;;;;5014873;28;20033;-90
2022/08/23 12:30:04;;;;;;;3.30;0.50;;;30.50;60.70;;;;;;5006164;28;20034;-88
2022/08/23 12:32:52;;;;;;;4.30;0.60;;;30.40;61.00;;;;;;5000727;28;20037;-88
2022/08/23 12:35:59;;;;;;;4.38;0.60;;;30.40;61.60;;;;;;5017984;28;20033;-89
2022/08/23 12:38:35;;;;;;;5.95;0.60;;;30.70;61.40;;;;;;4971999;28;20065;-89
2022/08/23 12:41:16;;;;;;;4.18;0.70;;;30.70;60.90;;;;;;5014437;28;20367;-88
2022/08/23 12:43:54;;;;;;;3.30;0.63;;;30.90;60.90;;;;;;5002390;28;20025;-88
2022/08/23 12:46:37;;;;;;;4.00;0.60;;;30.90;60.70;;;;;;5011785;28;20026;-89
2022/08/23 12:49:05;;;;;;;3.15;0.55;;;31.00;60.60;;;;;;5011782;28;20406;-90
2022/08/23 12:51:31;;;;;;;2.30;0.60;;;31.10;60.90;;;;;;5015471;28;20174;-88
2022/08/23 12:54:12;;;;;;;4.53;0.90;;;31.20;59.80;;;;;;5005264;28;20033;-89
2022/08/23 12:56:37;;;;;;;1.70;0.50;;;31.10;59.60;;;;;;5009721;28;20038;-88
2022/08/23 12:59:06;;;;;;;2.47;0.50;;;31.10;59.80;;;;;;5004462;28;20311;-88
2022/08/23 13:01:37;;;;;;;3.67;0.63;;;30.80;59.90;;;;;;5012088;28;20038;-88
2022/08/23 13:04:08;;;;;;;5.63;0.80;;;30.70;59.90;;;;;;5007373;28;20019;-88
2022/08/23 13:06:44;;;;;;;2.42;0.55;;;30.60;60.00;;;;;;4998107;28;20047;-87
2022/08/23 13:09:27;;;;;;;5.18;0.60;;;30.50;60.00;;;;;;5014046;28;20026;-87